Terminal Aerodrome Forecast
Issued by NWS

Home | Current Version | Previous Version | Text Only | Print | Product List | Glossary On
Versions: 1 2 3 4 5 6 7 8 9 10 11 12 13 14 15 16 17 18 19 20
915
FTUS41 KAKQ 130224 AAA
TAFPHF
TAF AMD
KPHF 130224Z 1302/1324 27008KT P6SM OVC090
      TEMPO 1302/1304 BKN015 OVC060
     FM130800 30010G18KT P6SM SKC
     FM131300 32015G26KT P6SM SKC=

USA.gov is the U.S. government's official web portal to all federal, state and local government web resources and services.